createdAt,value
2023-05-20T00:02:23.889Z,14.12
2023-05-20T00:04:52.282Z,14.16
2023-05-20T00:07:20.615Z,14.21
2023-05-20T00:09:48.493Z,14.23
2023-05-20T00:12:16.645Z,14.26
2023-05-20T00:14:44.619Z,14.25
2023-05-20T00:17:12.226Z,14.24
2023-05-20T00:19:40.565Z,14.21
2023-05-20T00:22:08.376Z,14.21
2023-05-20T00:24:36.627Z,14.17
2023-05-20T00:27:05.080Z,14.05
2023-05-20T00:29:33.911Z,13.98
2023-05-20T00:32:01.990Z,14.00
2023-05-20T00:34:30.102Z,13.96
2023-05-20T00:36:57.551Z,13.71
2023-05-20T00:39:25.939Z,13.07
2023-05-20T00:41:53.683Z,13.10
2023-05-20T00:44:24.192Z,13.26
2023-05-20T00:46:52.174Z,13.31
2023-05-20T00:49:20.756Z,13.27
2023-05-20T00:51:48.814Z,13.10
2023-05-20T00:54:16.524Z,13.14
2023-05-20T00:56:44.892Z,13.19
2023-05-20T00:59:13.107Z,13.08
2023-05-20T01:01:41.703Z,13.00
2023-05-20T01:04:09.701Z,12.67
2023-05-20T01:06:38.549Z,12.80
2023-05-20T01:09:06.586Z,12.77
2023-05-20T01:11:43.318Z,12.69
2023-05-20T01:14:21.107Z,12.65
2023-05-20T01:16:50.584Z,12.56
2023-05-20T01:19:39.153Z,12.52
2023-05-20T01:22:08.040Z,12.44
2023-05-20T01:24:37.710Z,12.54
2023-05-20T01:27:05.563Z,12.56
2023-05-20T01:29:34.667Z,12.44
2023-05-20T01:32:04.079Z,12.48
2023-05-20T01:34:34.095Z,12.65
2023-05-20T01:37:02.455Z,12.78
2023-05-20T01:39:31.317Z,12.83
2023-05-20T01:42:00.072Z,12.84
2023-05-20T01:44:28.725Z,12.20
2023-05-20T01:46:56.936Z,12.23
2023-05-20T01:49:25.766Z,12.24
2023-05-20T01:51:54.088Z,12.10
2023-05-20T01:54:21.736Z,12.17
2023-05-20T01:56:51.445Z,12.00
2023-05-20T01:59:19.156Z,11.88
2023-05-20T02:01:47.206Z,11.85
2023-05-20T02:04:15.735Z,11.97
2023-05-20T02:06:44.072Z,12.07
2023-05-20T02:09:13.136Z,12.18
2023-05-20T02:11:40.477Z,12.31
2023-05-20T02:14:09.500Z,12.53
2023-05-20T02:16:37.762Z,12.69
2023-05-20T02:19:05.996Z,12.84
2023-05-20T02:21:36.064Z,13.01
2023-05-20T02:24:05.344Z,13.26
2023-05-20T02:26:34.338Z,13.40
2023-05-20T02:29:02.370Z,13.50
2023-05-20T02:31:30.705Z,13.58
2023-05-20T02:33:58.820Z,13.68
2023-05-20T02:36:28.514Z,13.84
2023-05-20T02:38:56.984Z,13.93
2023-05-20T02:41:24.577Z,14.03
2023-05-20T02:43:52.572Z,14.08
2023-05-20T02:46:21.170Z,14.23
2023-05-20T02:48:49.949Z,14.43
2023-05-20T02:51:18.447Z,14.55
2023-05-20T02:53:47.017Z,14.78
2023-05-20T02:56:16.554Z,15.00
2023-05-20T02:58:44.518Z,15.01
2023-05-20T03:01:12.850Z,15.11
2023-05-20T03:03:41.608Z,15.37
2023-05-20T03:06:10.027Z,15.68
2023-05-20T03:08:39.802Z,15.69
2023-05-20T03:11:07.446Z,15.80
2023-05-20T03:13:36.333Z,16.07
2023-05-20T03:16:04.747Z,16.45
2023-05-20T03:18:32.477Z,16.57
2023-05-20T03:21:00.582Z,16.78
2023-05-20T03:23:28.933Z,16.90
2023-05-20T03:25:56.903Z,17.15
2023-05-20T03:28:25.005Z,17.49
2023-05-20T03:30:52.893Z,17.66
2023-05-20T03:33:23.441Z,17.75
2023-05-20T03:35:51.699Z,18.14
2023-05-20T03:38:19.443Z,18.45
2023-05-20T03:40:48.564Z,18.65
2023-05-20T03:43:17.095Z,18.83
2023-05-20T03:45:45.876Z,19.21
2023-05-20T03:48:14.565Z,19.50
2023-05-20T03:50:42.969Z,19.74
2023-05-20T03:53:11.608Z,20.00
2023-05-20T03:55:42.633Z,20.24
2023-05-20T03:58:13.655Z,20.18
2023-05-20T04:00:42.662Z,20.26
2023-05-20T04:03:11.881Z,19.99
2023-05-20T04:05:40.134Z,20.06
2023-05-20T04:08:14.531Z,20.49
2023-05-20T04:10:45.788Z,20.79
2023-05-20T04:13:14.793Z,20.61
2023-05-20T04:15:43.658Z,20.72
2023-05-20T04:18:12.257Z,20.46
2023-05-20T04:20:41.511Z,20.92
2023-05-20T04:23:09.852Z,20.95
2023-05-20T04:25:39.065Z,21.40
2023-05-20T04:28:08.559Z,20.78
2023-05-20T04:30:36.669Z,21.22
2023-05-20T04:33:04.341Z,21.18
2023-05-20T04:35:35.397Z,21.66
2023-05-20T04:38:04.960Z,22.08
2023-05-20T04:40:34.153Z,21.59
2023-05-20T04:43:01.565Z,21.57
2023-05-20T04:45:29.653Z,22.01
2023-05-20T04:47:58.261Z,21.97
2023-05-20T04:50:28.039Z,22.52
2023-05-20T04:52:56.840Z,22.07
2023-05-20T04:55:26.495Z,23.12
2023-05-20T04:57:54.116Z,22.88
2023-05-20T05:00:21.643Z,23.62
2023-05-20T05:02:49.238Z,23.66
2023-05-20T05:05:17.468Z,23.93
2023-05-20T05:07:45.601Z,23.83
2023-05-20T05:10:16.394Z,23.31
2023-05-20T05:12:44.177Z,23.76
2023-05-20T05:15:12.623Z,24.32
2023-05-20T05:17:40.649Z,23.95
2023-05-20T05:20:12.067Z,24.30
2023-05-20T05:22:41.813Z,24.35
2023-05-20T05:25:11.559Z,24.32
2023-05-20T05:27:39.509Z,23.87
2023-05-20T05:30:08.203Z,24.09
2023-05-20T05:32:37.071Z,24.60
2023-05-20T05:35:08.224Z,24.53
2023-05-20T05:37:36.235Z,24.62
2023-05-20T05:40:04.509Z,24.81
2023-05-20T05:42:31.995Z,24.55
2023-05-20T05:45:00.177Z,24.78
2023-05-20T05:47:32.845Z,24.99
2023-05-20T05:50:01.127Z,25.56
2023-05-20T05:52:31.217Z,25.23
2023-05-20T05:55:00.887Z,25.44
2023-05-20T05:57:29.289Z,25.41
2023-05-20T05:59:57.350Z,25.45
2023-05-20T06:02:26.401Z,25.77
2023-05-20T06:04:54.634Z,25.41
2023-05-20T06:07:24.217Z,25.95
2023-05-20T06:09:52.638Z,26.39
2023-05-20T06:12:20.928Z,26.70
2023-05-20T06:14:49.336Z,26.62
2023-05-20T06:17:17.578Z,27.22
2023-05-20T06:19:46.456Z,26.51
2023-05-20T06:22:15.470Z,25.92
2023-05-20T06:24:43.195Z,26.40
2023-05-20T06:27:10.796Z,27.20
2023-05-20T06:29:39.159Z,27.19
2023-05-20T06:32:07.623Z,26.73
2023-05-20T06:34:36.232Z,26.84
2023-05-20T06:37:04.037Z,26.92
2023-05-20T06:39:31.975Z,27.43
2023-05-20T06:42:00.066Z,27.13
2023-05-20T06:44:31.836Z,26.67
2023-05-20T06:47:02.205Z,26.61
2023-05-20T06:49:32.250Z,27.21
2023-05-20T06:52:01.294Z,27.10
2023-05-20T06:54:30.437Z,27.01
2023-05-20T06:56:59.221Z,26.27
2023-05-20T06:59:27.154Z,26.35
2023-05-20T07:01:56.033Z,26.52
2023-05-20T07:04:25.338Z,26.79
2023-05-20T07:06:55.030Z,26.79
2023-05-20T07:09:23.318Z,27.03
2023-05-20T07:11:51.641Z,27.24
2023-05-20T07:14:19.654Z,26.82
2023-05-20T07:16:48.324Z,27.12
2023-05-20T07:19:15.967Z,27.47
2023-05-20T07:21:44.450Z,27.72
2023-05-20T07:24:50.899Z,27.56
2023-05-20T07:27:19.115Z,27.78
2023-05-20T07:29:46.875Z,27.17
2023-05-20T07:32:14.410Z,26.86
2023-05-20T07:34:44.378Z,27.80
2023-05-20T07:37:12.902Z,27.68
2023-05-20T07:39:40.587Z,27.64
2023-05-20T07:42:08.216Z,27.55
2023-05-20T07:44:36.848Z,27.88
2023-05-20T07:47:05.654Z,28.32
2023-05-20T07:49:34.556Z,27.79
2023-05-20T07:52:04.154Z,27.57
2023-05-20T07:54:32.430Z,27.66
2023-05-20T07:57:02.277Z,28.12
2023-05-20T07:59:30.918Z,28.09
2023-05-20T08:01:59.129Z,27.70
2023-05-20T08:04:27.910Z,28.33
2023-05-20T08:06:56.644Z,28.70
2023-05-20T08:09:34.427Z,28.79
2023-05-20T08:12:03.331Z,28.50
2023-05-20T08:14:31.125Z,28.56
2023-05-20T08:17:00.858Z,28.09
2023-05-20T08:19:29.185Z,28.32
2023-05-20T08:21:57.716Z,28.55
2023-05-20T08:24:26.580Z,28.37
2023-05-20T08:26:55.132Z,28.26
2023-05-20T08:29:24.658Z,28.61
2023-05-20T08:31:52.710Z,28.16
2023-05-20T08:34:21.631Z,28.50
2023-05-20T08:36:50.042Z,28.44
2023-05-20T08:39:18.194Z,28.06
2023-05-20T08:41:47.177Z,28.13
2023-05-20T08:44:18.140Z,28.44
2023-05-20T08:46:46.863Z,28.40
2023-05-20T08:49:14.863Z,28.74
2023-05-20T08:51:43.296Z,28.80
2023-05-20T08:54:12.685Z,28.09
2023-05-20T08:56:42.124Z,28.49
2023-05-20T08:59:10.450Z,28.33
2023-05-20T09:01:44.346Z,27.96
2023-05-20T09:04:14.130Z,27.83
2023-05-20T09:06:46.413Z,27.70
2023-05-20T09:09:14.042Z,27.23
2023-05-20T09:11:42.818Z,27.31
2023-05-20T09:14:11.144Z,26.10
2023-05-20T09:16:42.357Z,26.54
2023-05-20T09:19:11.014Z,27.18
2023-05-20T09:21:42.454Z,27.63
2023-05-20T09:24:10.149Z,27.17
2023-05-20T09:26:37.931Z,26.47
2023-05-20T09:29:06.040Z,26.07
2023-05-20T09:31:34.275Z,25.85
2023-05-20T09:34:03.214Z,26.09
2023-05-20T09:36:32.087Z,25.99
2023-05-20T09:39:03.413Z,26.68
2023-05-20T09:41:34.255Z,27.22
2023-05-20T09:44:02.617Z,27.91
2023-05-20T09:46:31.694Z,27.85
2023-05-20T09:49:00.009Z,26.69
2023-05-20T09:51:30.344Z,26.17
2023-05-20T09:53:58.568Z,26.02
2023-05-20T09:56:27.665Z,25.88
2023-05-20T09:58:58.579Z,25.51
2023-05-20T10:01:27.456Z,25.51
2023-05-20T10:03:55.279Z,25.19
2023-05-20T10:06:50.810Z,26.10
2023-05-20T10:09:24.596Z,27.21
2023-05-20T10:13:07.846Z,27.53
2023-05-20T10:16:02.053Z,27.50
2023-05-20T10:18:50.682Z,27.79
2023-05-20T10:21:20.041Z,26.91
2023-05-20T10:23:48.222Z,27.33
2023-05-20T10:26:16.757Z,27.92
2023-05-20T10:28:46.292Z,27.43
2023-05-20T10:31:20.264Z,26.83
2023-05-20T10:33:48.290Z,27.35
2023-05-20T10:36:29.447Z,27.84
2023-05-20T10:38:59.529Z,28.13
2023-05-20T10:41:28.264Z,28.09
2023-05-20T10:44:06.448Z,27.59
2023-05-20T10:46:51.456Z,27.82
2023-05-20T10:49:34.401Z,27.79
2023-05-20T10:52:03.218Z,28.04
2023-05-20T10:54:36.251Z,27.83
2023-05-20T10:57:08.031Z,28.00
2023-05-20T10:59:37.490Z,28.08
2023-05-20T11:02:06.696Z,28.82
2023-05-20T11:04:36.118Z,28.48
2023-05-20T11:07:05.480Z,28.03
2023-05-20T11:09:35.011Z,28.32
2023-05-20T11:12:03.953Z,28.83
2023-05-20T11:14:31.857Z,27.98
2023-05-20T11:17:01.065Z,27.67
2023-05-20T11:19:30.521Z,27.71
2023-05-20T11:21:58.867Z,27.72
2023-05-20T11:24:28.652Z,28.00
2023-05-20T11:26:58.190Z,28.37
2023-05-20T11:29:27.279Z,28.38
2023-05-20T11:31:55.210Z,28.68
2023-05-20T11:34:26.432Z,28.47
2023-05-20T11:36:58.881Z,28.51
2023-05-20T11:39:29.574Z,27.78
2023-05-20T11:41:57.941Z,27.56
2023-05-20T11:44:26.544Z,27.09
2023-05-20T11:46:59.741Z,27.41
2023-05-20T11:49:28.850Z,27.28
2023-05-20T11:51:57.239Z,27.88
2023-05-20T11:54:27.414Z,28.29
2023-05-20T11:56:57.031Z,27.98
2023-05-20T11:59:25.846Z,27.11
2023-05-20T12:01:53.675Z,26.44
2023-05-20T12:04:22.166Z,26.04
2023-05-20T12:06:50.188Z,26.59
2023-05-20T12:09:18.487Z,27.35
2023-05-20T12:11:46.851Z,27.38
2023-05-20T12:14:15.761Z,27.57
2023-05-20T12:16:43.425Z,27.54
2023-05-20T12:19:11.176Z,27.98
2023-05-20T12:21:39.142Z,27.86
2023-05-20T12:24:09.211Z,28.05
2023-05-20T12:26:36.857Z,28.50
2023-05-20T12:29:05.632Z,28.20
2023-05-20T12:31:35.109Z,28.43
2023-05-20T12:34:03.751Z,28.17
2023-05-20T12:36:32.203Z,28.11
2023-05-20T12:39:00.137Z,27.92
2023-05-20T12:41:27.823Z,27.82
2023-05-20T12:43:55.495Z,27.96
2023-05-20T12:46:23.959Z,28.11
2023-05-20T12:48:52.580Z,28.16
2023-05-20T12:51:21.362Z,27.97
2023-05-20T12:53:49.711Z,27.91
2023-05-20T12:56:18.920Z,27.86
2023-05-20T12:58:47.503Z,28.24
2023-05-20T13:01:16.278Z,27.62
2023-05-20T13:03:44.169Z,26.86
2023-05-20T13:06:11.891Z,26.68
2023-05-20T13:08:39.654Z,27.14
2023-05-20T13:11:07.694Z,27.48
2023-05-20T13:13:35.363Z,27.57
2023-05-20T13:16:03.056Z,27.49
2023-05-20T13:18:32.482Z,27.51
2023-05-20T13:21:00.136Z,27.40
2023-05-20T13:23:31.492Z,27.70
2023-05-20T13:25:59.904Z,27.65
2023-05-20T13:28:28.282Z,27.95
2023-05-20T13:30:56.535Z,27.85
2023-05-20T13:33:24.554Z,27.48
2023-05-20T13:35:53.552Z,27.23
2023-05-20T13:38:22.256Z,27.22
2023-05-20T13:40:49.929Z,26.98
2023-05-20T13:43:17.819Z,26.77
2023-05-20T13:45:45.491Z,26.77
2023-05-20T13:48:13.930Z,26.52
2023-05-20T13:50:41.603Z,26.51
2023-05-20T13:53:14.124Z,26.61
2023-05-20T13:55:44.441Z,26.75
2023-05-20T13:58:12.114Z,26.99
2023-05-20T14:00:39.860Z,26.61
2023-05-20T14:03:09.462Z,26.14
2023-05-20T14:05:37.497Z,26.07
2023-05-20T14:08:05.699Z,26.41
2023-05-20T14:10:34.133Z,26.65
2023-05-20T14:13:02.382Z,27.00
2023-05-20T14:15:33.836Z,26.91
2023-05-20T14:18:02.135Z,26.62
2023-05-20T14:20:29.941Z,26.54
2023-05-20T14:22:57.925Z,26.55
2023-05-20T14:25:26.586Z,26.60
2023-05-20T14:27:54.670Z,26.55
2023-05-20T14:30:23.630Z,26.54
2023-05-20T14:32:52.393Z,26.52
2023-05-20T14:35:21.764Z,26.26
2023-05-20T14:37:49.792Z,26.35
2023-05-20T14:40:19.040Z,26.56
2023-05-20T14:42:46.668Z,26.35
2023-05-20T14:45:14.578Z,26.19
2023-05-20T14:47:43.153Z,26.14
2023-05-20T14:50:10.835Z,26.13
2023-05-20T14:52:38.393Z,26.04
2023-05-20T14:55:06.254Z,26.27
2023-05-20T14:57:34.004Z,26.48
2023-05-20T15:00:02.701Z,26.58
2023-05-20T15:02:31.407Z,26.59
2023-05-20T15:04:59.819Z,26.50
2023-05-20T15:07:27.837Z,26.60
2023-05-20T15:09:56.055Z,26.71
2023-05-20T15:12:24.274Z,26.63
2023-05-20T15:14:52.456Z,26.58
2023-05-20T15:17:20.764Z,26.47
2023-05-20T15:19:49.558Z,26.24
2023-05-20T15:22:17.730Z,26.09
2023-05-20T15:24:46.190Z,25.99
2023-05-20T15:27:14.456Z,25.91
2023-05-20T15:29:42.033Z,25.85
2023-05-20T15:32:10.168Z,25.80
2023-05-20T15:34:44.730Z,25.72
2023-05-20T15:37:11.959Z,25.64
2023-05-20T15:39:40.015Z,25.59
2023-05-20T15:42:08.016Z,25.55
2023-05-20T15:44:36.277Z,25.45
2023-05-20T15:47:06.226Z,25.38
2023-05-20T15:49:34.528Z,25.34
2023-05-20T15:52:04.251Z,25.33
2023-05-20T15:54:32.868Z,25.20
2023-05-20T15:57:01.236Z,25.07
2023-05-20T15:59:30.647Z,25.05
2023-05-20T16:01:59.049Z,24.98
2023-05-20T16:04:29.148Z,24.90
2023-05-20T16:06:57.328Z,24.72
2023-05-20T16:09:25.318Z,24.58
2023-05-20T16:11:53.930Z,24.42
2023-05-20T16:14:22.110Z,24.29
2023-05-20T16:16:50.188Z,24.16
2023-05-20T16:19:18.523Z,24.04
2023-05-20T16:21:46.507Z,23.93
2023-05-20T16:24:15.547Z,23.91
2023-05-20T16:26:43.055Z,23.93
2023-05-20T16:29:13.043Z,23.85
2023-05-20T16:31:44.754Z,23.82
2023-05-20T16:34:13.396Z,23.76
2023-05-20T16:36:40.974Z,23.64
2023-05-20T16:39:09.295Z,23.53
2023-05-20T16:41:37.529Z,23.45
2023-05-20T16:44:05.790Z,23.38
2023-05-20T16:46:33.714Z,23.34
2023-05-20T16:49:01.851Z,23.27
2023-05-20T16:51:29.948Z,23.14
2023-05-20T16:53:57.704Z,22.92
2023-05-20T16:56:26.330Z,22.76
2023-05-20T16:58:53.988Z,22.58
2023-05-20T17:01:21.930Z,22.24
2023-05-20T17:03:50.702Z,22.15
2023-05-20T17:06:18.811Z,22.11
2023-05-20T17:08:46.681Z,21.91
2023-05-20T17:11:15.036Z,21.77
2023-05-20T17:13:43.370Z,21.58
2023-05-20T17:16:12.281Z,21.43
2023-05-20T17:18:40.158Z,21.26
2023-05-20T17:21:07.957Z,21.12
2023-05-20T17:23:35.656Z,21.00
2023-05-20T17:26:04.764Z,20.89
2023-05-20T17:28:32.925Z,20.75
2023-05-20T17:31:05.540Z,20.54
2023-05-20T17:33:42.869Z,20.62
2023-05-20T17:36:10.736Z,20.59
2023-05-20T17:38:38.909Z,20.54
2023-05-20T17:41:07.431Z,20.56
2023-05-20T17:43:35.110Z,20.53
2023-05-20T17:46:03.054Z,20.51
2023-05-20T17:48:33.095Z,20.59
2023-05-20T17:51:01.440Z,20.62
2023-05-20T17:53:29.732Z,20.68
2023-05-20T17:55:57.327Z,20.72
2023-05-20T17:58:27.433Z,20.67
2023-05-20T18:00:55.625Z,20.67
2023-05-20T18:03:23.475Z,20.58
2023-05-20T18:05:51.894Z,20.60
2023-05-20T18:08:21.585Z,20.64
2023-05-20T18:10:49.286Z,20.68
2023-05-20T18:13:17.637Z,20.69
2023-05-20T18:15:45.351Z,20.72
2023-05-20T18:18:13.633Z,20.82
2023-05-20T18:20:42.191Z,20.84
2023-05-20T18:23:14.454Z,20.92
2023-05-20T18:25:43.197Z,20.94
2023-05-20T18:28:11.362Z,20.93
2023-05-20T18:30:40.852Z,20.91
2023-05-20T18:33:08.561Z,20.87
2023-05-20T18:35:36.971Z,20.84
2023-05-20T18:38:04.648Z,20.73
2023-05-20T18:40:32.688Z,20.65
2023-05-20T18:43:00.632Z,20.60
2023-05-20T18:45:28.381Z,20.63
2023-05-20T18:47:58.583Z,20.58
2023-05-20T18:50:26.194Z,20.51
2023-05-20T18:52:53.810Z,20.53
2023-05-20T18:55:22.191Z,20.49
2023-05-20T18:57:49.875Z,20.48
2023-05-20T19:00:18.306Z,20.51
2023-05-20T19:02:47.468Z,20.54
2023-05-20T19:05:16.484Z,20.52
2023-05-20T19:07:44.631Z,20.49
2023-05-20T19:10:12.371Z,20.51
2023-05-20T19:12:40.300Z,20.51
2023-05-20T19:15:08.804Z,20.46
2023-05-20T19:17:37.331Z,20.38
2023-05-20T19:20:08.885Z,20.37
2023-05-20T19:22:37.608Z,20.29
2023-05-20T19:25:07.027Z,20.23
2023-05-20T19:27:34.247Z,20.23
2023-05-20T19:30:02.938Z,20.25
2023-05-20T19:32:32.762Z,20.29
2023-05-20T19:35:01.543Z,20.30
2023-05-20T19:37:29.555Z,20.30
2023-05-20T19:40:05.004Z,20.30
2023-05-20T19:42:32.561Z,20.30
2023-05-20T19:45:00.895Z,20.26
2023-05-20T19:47:29.449Z,20.24
2023-05-20T19:49:57.832Z,20.23
2023-05-20T19:52:26.821Z,20.24
2023-05-20T19:54:55.082Z,20.17
2023-05-20T19:57:23.927Z,20.12
2023-05-20T19:59:53.520Z,20.08
2023-05-20T20:02:21.935Z,20.04
2023-05-20T20:04:52.128Z,19.99
2023-05-20T20:07:20.861Z,19.91
2023-05-20T20:09:52.845Z,19.87
2023-05-20T20:12:20.260Z,19.78
2023-05-20T20:14:47.882Z,19.80
2023-05-20T20:17:17.725Z,19.81
2023-05-20T20:19:46.960Z,19.76
2023-05-20T20:22:16.791Z,19.73
2023-05-20T20:24:46.751Z,19.65
2023-05-20T20:27:14.769Z,19.61
2023-05-20T20:29:43.204Z,19.54
2023-05-20T20:32:12.914Z,19.51
2023-05-20T20:34:43.821Z,19.45
2023-05-20T20:37:15.216Z,19.43
2023-05-20T20:39:45.492Z,19.38
2023-05-20T20:42:41.827Z,19.32
2023-05-20T20:45:13.074Z,19.28
2023-05-20T20:47:42.691Z,19.29
2023-05-20T20:50:11.771Z,19.27
2023-05-20T20:52:39.986Z,19.20
2023-05-20T20:55:10.173Z,19.15
2023-05-20T20:57:38.173Z,19.13
2023-05-20T21:00:16.537Z,19.07
2023-05-20T21:02:44.738Z,19.00
2023-05-20T21:05:12.678Z,18.97
2023-05-20T21:07:43.511Z,18.96
2023-05-20T21:10:11.022Z,18.95
2023-05-20T21:12:41.391Z,18.87
2023-05-20T21:15:12.985Z,18.84
2023-05-20T21:17:41.663Z,18.85
2023-05-20T21:20:11.922Z,18.81
2023-05-20T21:22:39.679Z,18.79
2023-05-20T21:25:08.215Z,18.76
2023-05-20T21:27:36.226Z,18.73
2023-05-20T21:30:04.623Z,18.68
2023-05-20T21:32:33.709Z,18.64
2023-05-20T21:35:01.260Z,18.65
2023-05-20T21:37:29.533Z,18.61
2023-05-20T21:39:57.612Z,18.50
2023-05-20T21:42:25.309Z,18.46
2023-05-20T21:44:53.884Z,18.41
2023-05-20T21:47:21.423Z,18.41
2023-05-20T21:49:49.773Z,18.37
2023-05-20T21:52:16.969Z,18.20
2023-05-20T21:54:44.475Z,18.22
2023-05-20T21:57:12.015Z,18.17
2023-05-20T21:59:39.550Z,18.17
2023-05-20T22:02:07.539Z,18.05
2023-05-20T22:04:35.652Z,18.04
2023-05-20T22:07:03.811Z,18.01
2023-05-20T22:09:32.209Z,17.91
2023-05-20T22:12:01.404Z,17.91
2023-05-20T22:14:29.181Z,17.84
2023-05-20T22:16:58.655Z,17.75
2023-05-20T22:19:27.006Z,17.81
2023-05-20T22:21:54.532Z,17.75
2023-05-20T22:24:22.613Z,17.68
2023-05-20T22:26:50.313Z,17.65
2023-05-20T22:29:18.483Z,17.67
2023-05-20T22:31:46.639Z,17.59
2023-05-20T22:34:14.870Z,17.63
2023-05-20T22:36:42.613Z,17.55
2023-05-20T22:39:10.284Z,17.41
2023-05-20T22:41:38.932Z,17.41
2023-05-20T22:44:07.041Z,17.42
2023-05-20T22:46:35.273Z,17.43
2023-05-20T22:49:03.440Z,17.36
2023-05-20T22:51:34.532Z,17.39
2023-05-20T22:54:02.438Z,17.38
2023-05-20T22:56:33.205Z,17.38
2023-05-20T22:59:01.294Z,17.40
2023-05-20T23:01:29.415Z,17.43
2023-05-20T23:03:57.435Z,17.41
2023-05-20T23:06:25.557Z,17.42
2023-05-20T23:08:53.136Z,17.44
2023-05-20T23:11:21.478Z,17.44
2023-05-20T23:13:49.772Z,17.48
2023-05-20T23:16:18.273Z,17.49
2023-05-20T23:18:48.122Z,17.49
2023-05-20T23:21:17.209Z,17.38
2023-05-20T23:23:45.293Z,17.42
2023-05-20T23:26:12.964Z,17.34
2023-05-20T23:28:40.936Z,17.28
2023-05-20T23:31:10.003Z,17.26
2023-05-20T23:33:37.861Z,17.21
2023-05-20T23:36:09.807Z,17.20
2023-05-20T23:38:38.305Z,17.17
2023-05-20T23:41:06.811Z,17.09
2023-05-20T23:43:34.330Z,17.01
2023-05-20T23:46:01.891Z,16.98
2023-05-20T23:48:29.431Z,16.93
2023-05-20T23:50:57.323Z,16.89
2023-05-20T23:53:25.988Z,16.84
2023-05-20T23:55:53.777Z,16.87
2023-05-20T23:58:21.287Z,16.85
